createdAt,value
2022-12-05T00:02:07.719Z,100568.48
2022-12-05T00:04:36.433Z,100573.30
2022-12-05T00:07:05.041Z,100564.34
2022-12-05T00:09:34.201Z,100561.92
2022-12-05T00:12:02.729Z,100565.00
2022-12-05T00:14:31.498Z,100562.36
2022-12-05T00:17:00.080Z,100560.95
2022-12-05T00:19:28.690Z,100563.95
2022-12-05T00:21:57.803Z,100563.39
2022-12-05T00:24:26.516Z,100563.83
2022-12-05T00:26:55.027Z,100558.47
2022-12-05T00:29:23.567Z,100563.70
2022-12-05T00:31:52.262Z,100561.16
2022-12-05T00:34:20.870Z,100567.52
2022-12-05T00:36:49.763Z,100565.05
2022-12-05T00:39:18.351Z,100559.83
2022-12-05T00:41:46.905Z,100567.35
2022-12-05T00:44:15.515Z,100569.40
2022-12-05T00:46:44.018Z,100571.42
2022-12-05T00:49:12.980Z,100568.42
2022-12-05T00:51:44.539Z,100566.08
2022-12-05T00:54:16.282Z,100567.91
2022-12-05T00:56:45.377Z,100568.25
2022-12-05T00:59:19.288Z,100578.06
2022-12-05T01:01:49.829Z,100567.33
2022-12-05T01:04:23.352Z,100570.75
2022-12-05T01:06:56.026Z,100561.39
2022-12-05T01:09:25.291Z,100558.98
2022-12-05T01:11:54.349Z,100572.30
2022-12-05T01:14:25.325Z,100578.14
2022-12-05T01:16:56.079Z,100576.98
2022-12-05T01:19:32.205Z,100562.44
2022-12-05T01:22:00.868Z,100555.90
2022-12-05T01:24:30.561Z,100554.00
2022-12-05T01:26:59.311Z,100549.00
2022-12-05T01:29:28.265Z,100542.59
2022-12-05T01:31:56.932Z,100547.64
2022-12-05T01:34:25.532Z,100547.92
2022-12-05T01:36:54.150Z,100540.75
2022-12-05T01:39:22.743Z,100539.89
2022-12-05T01:41:51.570Z,100537.51
2022-12-05T01:44:22.783Z,100536.16
2022-12-05T01:46:53.388Z,100535.28
2022-12-05T01:49:33.117Z,100531.77
2022-12-05T01:52:11.792Z,100531.52
2022-12-05T01:54:41.008Z,100531.97
2022-12-05T01:57:13.127Z,100536.20
2022-12-05T01:59:47.756Z,100538.46
2022-12-05T02:02:16.602Z,100539.68
2022-12-05T02:05:14.390Z,100542.77
2022-12-05T02:07:43.664Z,100544.48
2022-12-05T02:10:12.556Z,100544.51
2022-12-05T02:12:43.708Z,100547.12
2022-12-05T02:15:43.836Z,100538.15
2022-12-05T02:18:56.649Z,100536.14
2022-12-05T02:22:09.036Z,100530.11
2022-12-05T02:25:07.368Z,100525.31
2022-12-05T02:28:00.625Z,100521.77
2022-12-05T02:30:40.503Z,100515.59
2022-12-05T02:33:23.604Z,100515.80
2022-12-05T02:36:23.822Z,100519.48
2022-12-05T02:39:27.710Z,100514.54
2022-12-05T02:42:09.219Z,100510.10
2022-12-05T02:44:49.031Z,100510.40
2022-12-05T02:47:22.715Z,100516.83
2022-12-05T02:49:53.057Z,100517.80
2022-12-05T02:52:23.221Z,100516.10
2022-12-05T02:54:55.800Z,100512.50
2022-12-05T02:57:24.832Z,100512.33
2022-12-05T02:59:53.408Z,100509.36
2022-12-05T03:02:27.178Z,100514.16
2022-12-05T03:05:02.280Z,100512.76
2022-12-05T03:07:31.790Z,100510.52
2022-12-05T03:10:04.604Z,100509.34
2022-12-05T03:12:42.373Z,100507.41
2022-12-05T03:15:45.499Z,100506.84
2022-12-05T03:18:22.792Z,100500.57
2022-12-05T03:21:08.489Z,100499.87
2022-12-05T03:23:47.610Z,100497.80
2022-12-05T03:26:37.661Z,100498.02
2022-12-05T03:29:29.392Z,100495.54
2022-12-05T03:32:07.035Z,100496.55
2022-12-05T03:34:57.238Z,100493.84
2022-12-05T03:38:00.315Z,100490.08
2022-12-05T03:41:00.684Z,100486.77
2022-12-05T03:43:43.528Z,100489.64
2022-12-05T03:46:19.133Z,100498.34
2022-12-05T03:49:43.068Z,100499.02
2022-12-05T03:52:19.207Z,100500.38
2022-12-05T03:54:57.295Z,100497.29
2022-12-05T03:57:38.380Z,100494.06
2022-12-05T04:00:11.640Z,100486.02
2022-12-05T04:02:47.522Z,100481.04
2022-12-05T04:05:24.749Z,100477.41
2022-12-05T04:08:04.382Z,100482.54
2022-12-05T04:10:48.670Z,100477.13
2022-12-05T04:13:51.009Z,100481.71
2022-12-05T04:16:51.888Z,100482.73
2022-12-05T04:20:09.716Z,100489.22
2022-12-05T04:22:39.666Z,100484.78
2022-12-05T04:25:31.924Z,100477.36
2022-12-05T04:28:33.297Z,100480.42
2022-12-05T04:31:20.501Z,100484.36
2022-12-05T04:33:56.420Z,100483.33
2022-12-05T04:36:46.734Z,100488.13
2022-12-05T04:39:44.514Z,100495.21
2022-12-05T04:42:25.946Z,100495.72
2022-12-05T04:45:02.453Z,100491.13
2022-12-05T04:47:39.321Z,100487.60
2022-12-05T04:50:14.402Z,100491.41
2022-12-05T04:52:48.910Z,100487.46
2022-12-05T04:55:25.922Z,100492.34
2022-12-05T04:58:10.308Z,100492.59
2022-12-05T05:00:58.416Z,100485.75
2022-12-05T05:03:54.249Z,100485.02
2022-12-05T05:06:22.818Z,100487.80
2022-12-05T05:08:55.722Z,100482.67
2022-12-05T05:11:28.083Z,100493.90
2022-12-05T05:13:56.650Z,100497.66
2022-12-05T05:16:27.952Z,100495.04
2022-12-05T05:18:56.836Z,100501.23
2022-12-05T05:21:29.622Z,100502.39
2022-12-05T05:23:58.737Z,100501.29
2022-12-05T05:26:30.055Z,100508.29
2022-12-05T05:28:58.837Z,100508.90
2022-12-05T05:31:27.885Z,100507.27
2022-12-05T05:33:57.400Z,100514.92
2022-12-05T05:36:28.568Z,100512.04
2022-12-05T05:39:00.310Z,100511.09
2022-12-05T05:41:32.706Z,100513.29
2022-12-05T05:44:01.808Z,100517.04
2022-12-05T05:46:33.980Z,100515.59
2022-12-05T05:49:03.599Z,100518.09
2022-12-05T05:51:32.607Z,100521.69
2022-12-05T05:54:01.190Z,100520.42
2022-12-05T05:56:30.488Z,100524.15
2022-12-05T05:59:02.568Z,100523.34
2022-12-05T06:01:31.537Z,100523.54
2022-12-05T06:04:00.225Z,100536.68
2022-12-05T06:06:28.854Z,100529.61
2022-12-05T06:08:57.430Z,100514.90
2022-12-05T06:11:28.123Z,100510.46
2022-12-05T06:14:01.280Z,100507.54
2022-12-05T06:16:31.690Z,100505.44
2022-12-05T06:19:00.341Z,100520.75
2022-12-05T06:21:28.894Z,100530.68
2022-12-05T06:23:57.599Z,100531.61
2022-12-05T06:26:26.416Z,100527.66
2022-12-05T06:28:55.030Z,100523.96
2022-12-05T06:31:28.469Z,100521.34
2022-12-05T06:34:03.830Z,100522.86
2022-12-05T06:36:32.508Z,100523.05
2022-12-05T06:39:01.189Z,100517.89
2022-12-05T06:41:29.872Z,100515.48
2022-12-05T06:44:02.299Z,100515.33
2022-12-05T06:46:31.476Z,100520.64
2022-12-05T06:49:00.112Z,100521.23
2022-12-05T06:51:28.732Z,100515.26
2022-12-05T06:53:58.421Z,100516.07
2022-12-05T06:56:27.141Z,100514.80
2022-12-05T06:58:56.393Z,100514.62
2022-12-05T07:01:44.020Z,100509.47
2022-12-05T07:04:17.729Z,100503.73
2022-12-05T07:06:51.000Z,100502.49
2022-12-05T07:09:44.434Z,100500.25
2022-12-05T07:12:16.295Z,100497.34
2022-12-05T07:14:48.075Z,100494.31
2022-12-05T07:17:19.041Z,100498.45
2022-12-05T07:19:49.668Z,100497.48
2022-12-05T07:22:20.529Z,100505.23
2022-12-05T07:24:52.852Z,100506.65
2022-12-05T07:27:26.842Z,100513.17
2022-12-05T07:29:57.292Z,100517.81
2022-12-05T07:32:26.397Z,100518.27
2022-12-05T07:34:55.676Z,100514.79
2022-12-05T07:37:24.508Z,100520.10
2022-12-05T07:39:53.616Z,100520.51
2022-12-05T07:42:26.869Z,100521.83
2022-12-05T07:44:58.016Z,100524.10
2022-12-05T07:47:26.574Z,100527.88
2022-12-05T07:49:58.746Z,100530.33
2022-12-05T07:52:28.596Z,100533.64
2022-12-05T07:54:58.507Z,100536.77
2022-12-05T07:57:31.396Z,100535.61
2022-12-05T08:00:04.581Z,100533.93
2022-12-05T08:02:34.909Z,100536.40
2022-12-05T08:05:05.683Z,100532.31
2022-12-05T08:07:34.280Z,100528.88
2022-12-05T08:10:03.060Z,100532.69
2022-12-05T08:12:32.148Z,100533.74
2022-12-05T08:15:00.778Z,100537.38
2022-12-05T08:17:30.880Z,100536.59
2022-12-05T08:19:59.723Z,100540.58
2022-12-05T08:22:28.519Z,100545.98
2022-12-05T08:24:57.063Z,100545.85
2022-12-05T08:27:25.673Z,100542.30
2022-12-05T08:29:55.018Z,100546.96
2022-12-05T08:32:23.714Z,100544.96
2022-12-05T08:34:52.441Z,100550.23
2022-12-05T08:37:21.054Z,100551.55
2022-12-05T08:39:49.578Z,100552.05
2022-12-05T08:42:18.161Z,100552.89
2022-12-05T08:44:46.746Z,100554.73
2022-12-05T08:47:15.288Z,100552.20
2022-12-05T08:49:43.884Z,100557.50
2022-12-05T08:52:12.489Z,100556.80
2022-12-05T08:54:41.034Z,100553.07
2022-12-05T08:57:10.754Z,100555.38
2022-12-05T08:59:39.376Z,100557.50
2022-12-05T09:02:10.552Z,100555.98
2022-12-05T09:04:39.286Z,100555.80
2022-12-05T09:07:08.418Z,100552.58
2022-12-05T09:09:37.153Z,100553.52
2022-12-05T09:12:06.021Z,100541.13
2022-12-05T09:14:34.607Z,100535.85
2022-12-05T09:17:04.396Z,100534.88
2022-12-05T09:19:33.273Z,100535.79
2022-12-05T09:22:01.984Z,100534.21
2022-12-05T09:24:30.650Z,100535.11
2022-12-05T09:26:59.168Z,100531.81
2022-12-05T09:29:29.590Z,100531.84
2022-12-05T09:31:59.075Z,100534.52
2022-12-05T09:34:27.798Z,100536.32
2022-12-05T09:37:16.375Z,100533.75
2022-12-05T09:39:46.863Z,100532.65
2022-12-05T09:42:34.574Z,100534.91
2022-12-05T09:45:10.297Z,100536.08
2022-12-05T09:47:59.742Z,100532.49
2022-12-05T09:50:46.243Z,100534.33
2022-12-05T09:53:27.748Z,100534.73
2022-12-05T09:56:13.891Z,100530.67
2022-12-05T09:58:53.194Z,100527.65
2022-12-05T10:01:44.221Z,100524.58
2022-12-05T10:04:35.147Z,100522.57
2022-12-05T10:07:34.013Z,100516.80
2022-12-05T10:10:26.804Z,100516.40
2022-12-05T10:13:19.825Z,100514.84
2022-12-05T10:16:00.401Z,100508.54
2022-12-05T10:19:03.730Z,100512.52
2022-12-05T10:21:59.933Z,100510.64
2022-12-05T10:24:38.896Z,100510.90
2022-12-05T10:27:16.109Z,100510.99
2022-12-05T10:30:01.801Z,100509.22
2022-12-05T10:32:56.860Z,100499.40
2022-12-05T10:35:37.291Z,100496.45
2022-12-05T10:38:19.819Z,100500.67
2022-12-05T10:40:54.212Z,100500.79
2022-12-05T10:43:29.295Z,100497.33
2022-12-05T10:45:58.754Z,100496.36
2022-12-05T10:48:28.147Z,100497.80
2022-12-05T10:50:58.658Z,100495.92
2022-12-05T10:53:44.376Z,100497.55
2022-12-05T10:56:43.738Z,100494.33
2022-12-05T10:59:19.878Z,100493.43
2022-12-05T11:01:57.187Z,100498.63
2022-12-05T11:04:30.418Z,100501.02
2022-12-05T11:07:05.261Z,100494.81
2022-12-05T11:09:37.321Z,100492.77
2022-12-05T11:12:18.407Z,100491.98
2022-12-05T11:15:25.634Z,100491.80
2022-12-05T11:17:57.955Z,100492.93
2022-12-05T11:20:26.568Z,100492.42
2022-12-05T11:22:56.763Z,100496.91
2022-12-05T11:25:32.742Z,100495.30
2022-12-05T11:28:16.267Z,100493.35
2022-12-05T11:31:17.156Z,100491.35
2022-12-05T11:34:02.217Z,100487.83
2022-12-05T11:36:42.602Z,100487.10
2022-12-05T11:39:14.353Z,100483.99
2022-12-05T11:42:00.276Z,100485.16
2022-12-05T11:44:48.005Z,100480.17
2022-12-05T11:47:42.929Z,100480.83
2022-12-05T11:50:37.370Z,100477.39
2022-12-05T11:53:55.987Z,100478.17
2022-12-05T11:56:48.714Z,100475.62
2022-12-05T12:00:15.508Z,100475.44
2022-12-05T12:03:12.441Z,100478.94
2022-12-05T12:06:01.098Z,100475.41
2022-12-05T12:08:39.698Z,100475.71
2022-12-05T12:11:46.569Z,100471.63
2022-12-05T12:14:37.300Z,100471.16
2022-12-05T12:17:21.835Z,100470.20
2022-12-05T12:20:18.769Z,100471.12
2022-12-05T12:23:21.615Z,100469.17
2022-12-05T12:26:31.178Z,100465.48
2022-12-05T12:29:15.406Z,100468.83
2022-12-05T12:31:59.272Z,100465.37
2022-12-05T12:34:33.628Z,100465.66
2022-12-05T12:37:36.033Z,100461.26
2022-12-05T12:40:18.533Z,100462.76
2022-12-05T12:42:56.556Z,100460.89
2022-12-05T12:46:11.308Z,100456.55
2022-12-05T12:49:03.947Z,100457.85
2022-12-05T12:51:36.661Z,100460.07
2022-12-05T12:55:03.366Z,100459.53
2022-12-05T12:58:33.841Z,100457.89
2022-12-05T13:01:30.225Z,100459.91
2022-12-05T13:04:47.361Z,100463.09
2022-12-05T13:07:21.378Z,100467.70
2022-12-05T13:09:57.104Z,100467.63
2022-12-05T13:12:30.701Z,100468.90
2022-12-05T13:15:13.860Z,100472.06
2022-12-05T13:17:48.198Z,100467.54
2022-12-05T13:20:21.836Z,100469.77
2022-12-05T13:22:53.727Z,100474.61
2022-12-05T13:25:27.429Z,100472.98
2022-12-05T13:27:59.851Z,100470.66
2022-12-05T13:30:31.212Z,100473.04
2022-12-05T13:33:09.175Z,100475.73
2022-12-05T13:35:57.749Z,100475.08
2022-12-05T13:38:58.472Z,100477.33
2022-12-05T13:42:04.525Z,100480.39
2022-12-05T13:44:42.611Z,100480.04
2022-12-05T13:47:20.572Z,100474.03
2022-12-05T13:50:00.944Z,100476.55
2022-12-05T13:52:32.790Z,100476.98
2022-12-05T13:55:30.769Z,100476.21
2022-12-05T13:58:24.970Z,100474.92
2022-12-05T14:01:26.215Z,100479.33
2022-12-05T14:03:59.815Z,100477.09
2022-12-05T14:06:40.423Z,100473.91
2022-12-05T14:09:17.932Z,100474.45
2022-12-05T14:12:11.685Z,100478.47
2022-12-05T14:14:55.695Z,100475.34
2022-12-05T14:17:43.727Z,100473.45
2022-12-05T14:20:30.524Z,100475.30
2022-12-05T14:23:17.355Z,100473.46
2022-12-05T14:26:35.424Z,100470.83
2022-12-05T14:29:25.322Z,100470.95
2022-12-05T14:32:33.035Z,100471.23
2022-12-05T14:35:01.511Z,100469.59
2022-12-05T14:37:56.798Z,100468.71
2022-12-05T14:40:43.977Z,100460.23
2022-12-05T14:43:34.278Z,100466.00
2022-12-05T14:46:15.858Z,100465.19
2022-12-05T14:48:47.979Z,100472.48
2022-12-05T14:51:36.830Z,100471.79
2022-12-05T14:54:12.872Z,100471.89
2022-12-05T14:57:16.464Z,100475.30
2022-12-05T15:00:13.060Z,100474.20
2022-12-05T15:02:47.142Z,100468.83
2022-12-05T15:08:15.996Z,100471.95
2022-12-05T15:10:45.803Z,100465.45
2022-12-05T15:13:28.496Z,100465.41
2022-12-05T15:16:08.212Z,100469.52
2022-12-05T15:18:47.132Z,100470.29
2022-12-05T15:21:47.064Z,100468.84
2022-12-05T15:24:19.024Z,100465.16
2022-12-05T15:26:57.038Z,100468.05
2022-12-05T15:29:29.186Z,100475.60
2022-12-05T15:32:13.062Z,100477.17
2022-12-05T15:34:52.228Z,100466.25
2022-12-05T15:37:35.009Z,100465.38
2022-12-05T15:40:14.342Z,100457.73
2022-12-05T15:42:55.701Z,100456.05
2022-12-05T15:45:29.738Z,100457.58
2022-12-05T15:48:07.391Z,100455.05
2022-12-05T15:50:39.614Z,100457.27
2022-12-05T15:53:31.138Z,100457.00
2022-12-05T15:56:24.685Z,100457.90
2022-12-05T15:59:49.370Z,100463.27
2022-12-05T16:02:37.301Z,100465.98
2022-12-05T16:05:18.130Z,100464.91
2022-12-05T16:07:50.746Z,100462.29
2022-12-05T16:10:23.428Z,100463.62
2022-12-05T16:12:54.718Z,100468.55
2022-12-05T16:15:28.834Z,100474.54
2022-12-05T16:18:02.144Z,100473.20
2022-12-05T16:20:37.054Z,100473.27
2022-12-05T16:23:30.730Z,100474.55
2022-12-05T16:26:20.892Z,100472.77
2022-12-05T16:29:02.202Z,100481.39
2022-12-05T16:31:34.073Z,100482.20
2022-12-05T16:34:07.654Z,100481.07
2022-12-05T16:36:36.643Z,100481.23
2022-12-05T16:39:17.794Z,100481.98
2022-12-05T16:41:50.143Z,100481.11
2022-12-05T16:44:28.498Z,100485.31
2022-12-05T16:46:58.329Z,100486.58
2022-12-05T16:49:34.658Z,100485.83
2022-12-05T16:52:09.179Z,100489.42
2022-12-05T16:54:38.006Z,100492.05
2022-12-05T16:57:06.928Z,100489.88
2022-12-05T16:59:38.708Z,100487.88
2022-12-05T17:02:18.957Z,100485.13
2022-12-05T17:04:47.658Z,100488.64
2022-12-05T17:07:16.298Z,100481.97
2022-12-05T17:09:44.847Z,100483.27
2022-12-05T17:12:24.100Z,100485.38
2022-12-05T17:14:52.670Z,100483.33
2022-12-05T17:17:21.897Z,100485.02
2022-12-05T17:19:50.650Z,100486.90
2022-12-05T17:22:19.365Z,100488.83
2022-12-05T17:24:47.902Z,100487.94
2022-12-05T17:27:16.501Z,100487.23
2022-12-05T17:29:45.158Z,100486.35
2022-12-05T17:32:13.667Z,100488.25
2022-12-05T17:34:42.278Z,100483.74
2022-12-05T17:37:10.852Z,100487.54
2022-12-05T17:39:39.409Z,100490.23
2022-12-05T17:42:08.568Z,100489.48
2022-12-05T17:44:37.483Z,100489.86
2022-12-05T17:47:08.161Z,100491.54
2022-12-05T17:49:36.977Z,100488.71
2022-12-05T17:52:22.369Z,100487.52
2022-12-05T17:54:51.376Z,100488.38
2022-12-05T17:57:20.036Z,100485.81
2022-12-05T17:59:48.739Z,100482.11
2022-12-05T18:02:20.226Z,100483.59
2022-12-05T18:04:49.309Z,100477.63
2022-12-05T18:07:17.841Z,100470.48
2022-12-05T18:09:46.454Z,100468.05
2022-12-05T18:12:15.166Z,100471.30
2022-12-05T18:14:43.714Z,100476.52
2022-12-05T18:17:12.263Z,100481.70
2022-12-05T18:19:40.836Z,100480.96
2022-12-05T18:22:09.491Z,100480.77
2022-12-05T18:24:38.495Z,100476.61
2022-12-05T18:27:07.461Z,100481.98
2022-12-05T18:29:35.990Z,100480.34
2022-12-05T18:32:04.639Z,100475.49
2022-12-05T18:34:33.295Z,100471.84
2022-12-05T18:37:02.151Z,100474.13
2022-12-05T18:39:30.812Z,100474.66
2022-12-05T18:41:59.412Z,100473.40
2022-12-05T18:44:28.164Z,100475.86
2022-12-05T18:46:56.712Z,100476.81
2022-12-05T18:49:25.351Z,100475.00
2022-12-05T18:51:53.919Z,100478.95
2022-12-05T18:54:22.504Z,100478.52
2022-12-05T18:56:52.830Z,100477.96
2022-12-05T18:59:22.395Z,100476.65
2022-12-05T19:01:51.724Z,100476.56
2022-12-05T19:04:22.724Z,100474.86
2022-12-05T19:06:57.921Z,100474.17
2022-12-05T19:09:30.603Z,100476.30
2022-12-05T19:12:00.906Z,100471.49
2022-12-05T19:14:32.960Z,100474.21
2022-12-05T19:17:01.709Z,100473.13
2022-12-05T19:19:30.436Z,100476.58
2022-12-05T19:21:59.427Z,100479.21
2022-12-05T19:24:28.008Z,100482.56
2022-12-05T19:26:56.686Z,100491.69
2022-12-05T19:29:25.262Z,100488.63
2022-12-05T19:31:53.865Z,100490.61
2022-12-05T19:34:24.417Z,100490.48
2022-12-05T19:36:53.039Z,100490.54
2022-12-05T19:39:27.135Z,100492.16
2022-12-05T19:41:59.408Z,100497.40
2022-12-05T19:44:28.330Z,100490.73
2022-12-05T19:46:56.934Z,100490.92
2022-12-05T19:49:25.583Z,100492.91
2022-12-05T19:51:54.248Z,100486.93
2022-12-05T19:54:24.165Z,100483.14
2022-12-05T19:56:58.354Z,100483.79
2022-12-05T19:59:27.084Z,100482.56
2022-12-05T20:01:55.783Z,100481.39
2022-12-05T20:04:24.502Z,100476.83
2022-12-05T20:06:53.116Z,100475.77
2022-12-05T20:09:23.065Z,100476.61
2022-12-05T20:11:56.051Z,100475.84
2022-12-05T20:14:25.964Z,100474.61
2022-12-05T20:16:55.266Z,100474.04
2022-12-05T20:19:24.822Z,100477.32
2022-12-05T20:21:55.610Z,100476.20
2022-12-05T20:24:24.626Z,100477.17
2022-12-05T20:26:53.364Z,100478.68
2022-12-05T20:29:21.972Z,100470.67
2022-12-05T20:31:53.778Z,100472.23
2022-12-05T20:34:22.338Z,100476.75
2022-12-05T20:36:53.137Z,100475.14
2022-12-05T20:39:21.792Z,100476.88
2022-12-05T20:41:50.841Z,100476.95
2022-12-05T20:44:20.133Z,100480.56
2022-12-05T20:46:52.999Z,100479.36
2022-12-05T20:49:21.600Z,100482.95
2022-12-05T20:51:50.453Z,100483.20
2022-12-05T20:54:19.339Z,100486.15
2022-12-05T20:56:49.255Z,100486.61
2022-12-05T20:59:19.106Z,100486.95
2022-12-05T21:01:49.468Z,100489.42
2022-12-05T21:04:18.158Z,100485.38
2022-12-05T21:06:47.751Z,100482.20
2022-12-05T21:09:28.208Z,100477.15
2022-12-05T21:14:45.051Z,100470.22
2022-12-05T21:17:14.065Z,100464.55
2022-12-05T21:19:43.360Z,100465.67
2022-12-05T21:22:11.982Z,100463.59
2022-12-05T21:24:40.699Z,100456.88
2022-12-05T21:27:09.199Z,100456.88
2022-12-05T21:29:37.726Z,100450.48
2022-12-05T21:32:06.877Z,100452.02
2022-12-05T21:34:35.699Z,100448.69
2022-12-05T21:37:04.278Z,100453.41
2022-12-05T21:39:32.869Z,100453.50
2022-12-05T21:42:01.399Z,100449.48
2022-12-05T21:44:29.986Z,100448.01
2022-12-05T21:46:58.510Z,100447.19
2022-12-05T21:49:27.076Z,100446.70
2022-12-05T21:51:55.636Z,100448.94
2022-12-05T21:54:24.184Z,100442.14
2022-12-05T21:56:54.826Z,100441.90
2022-12-05T21:59:23.347Z,100442.58
2022-12-05T22:01:52.124Z,100445.27
2022-12-05T22:04:20.824Z,100447.47
2022-12-05T22:06:49.371Z,100444.66
2022-12-05T22:09:22.115Z,100445.89
2022-12-05T22:11:50.884Z,100443.77
2022-12-05T22:14:19.471Z,100439.23
2022-12-05T22:16:48.103Z,100440.20
2022-12-05T22:19:17.335Z,100441.40
2022-12-05T22:21:46.017Z,100439.13
2022-12-05T22:24:19.545Z,100438.84
2022-12-05T22:26:48.066Z,100436.80
2022-12-05T22:29:17.633Z,100430.59
2022-12-05T22:31:46.322Z,100432.62
2022-12-05T22:34:16.094Z,100430.44
2022-12-05T22:36:44.684Z,100428.61
2022-12-05T22:39:13.638Z,100425.83
2022-12-05T22:41:42.278Z,100420.98
2022-12-05T22:44:11.059Z,100419.08
2022-12-05T22:46:39.813Z,100415.84
2022-12-05T22:49:10.890Z,100410.41
2022-12-05T22:51:39.482Z,100411.28
2022-12-05T22:54:08.985Z,100409.54
2022-12-05T22:56:38.014Z,100408.95
2022-12-05T22:59:09.218Z,100408.95
2022-12-05T23:01:41.568Z,100401.65
2022-12-05T23:04:11.630Z,100400.44
2022-12-05T23:06:40.282Z,100399.08
2022-12-05T23:09:11.050Z,100396.52
2022-12-05T23:11:39.876Z,100390.84
2022-12-05T23:14:08.607Z,100390.27
2022-12-05T23:16:37.541Z,100390.11
2022-12-05T23:19:06.175Z,100391.56
2022-12-05T23:21:38.738Z,100387.77
2022-12-05T23:24:10.961Z,100384.46
2022-12-05T23:26:46.120Z,100376.67
2022-12-05T23:29:15.120Z,100373.02
2022-12-05T23:31:44.107Z,100368.48
2022-12-05T23:34:12.891Z,100367.39
2022-12-05T23:36:41.621Z,100358.30
2022-12-05T23:39:10.533Z,100351.33
2022-12-05T23:41:39.141Z,100346.93
2022-12-05T23:44:07.676Z,100349.05
2022-12-05T23:46:36.292Z,100341.95
2022-12-05T23:49:04.950Z,100343.14
2022-12-05T23:51:34.127Z,100340.39
2022-12-05T23:54:02.807Z,100341.25
2022-12-05T23:56:34.105Z,100339.49
2022-12-05T23:59:06.352Z,100334.12
